Whiteville, NC

11:42 PM EDT on July 29, 2014 (GMT -0400)
CCSkywatch (KNCWHITE2) Elev 91 ft | 34.41 °N, 78.75 °W | Change Station

Current weather conditions updated 0 second ago

Scattered Clouds
Scattered Clouds
70.3 °F
Feels Like 71 °F
N
0.0
Wind Variable Wind from North
Gusts 0.0 mph

Tomorrow is forecast to be nearly the same temperature as today.

Today
High -- | Low -- °F
--% Chance of Precip.
Yesterday
High -- | Low -- °F
Precip. -- in
6:23 AM 8:18 PM
Waxing Crescent, 9% visible
Pressure 29.97 in
Visibility 10.0 miles
Clouds Scattered Clouds 10000 ft
Heat Index 71 °F
Dew Point 64 °F
Humidity 81%
Rainfall 0.00 in
Snow Depth Not available.
UV 0 out of 12
Pollen 4.50 out of 12
Air Quality Not available.
Flu Activity Not available.
METAR KCPC 300335Z AUTO 00000KT 10SM SCT100 22/19 A2997 RMK AO2 T02180190

More Conditions Fewer Conditions

Pressure 29.97 in
Visibility 10.0 miles
Clouds Scattered Clouds 10000 ft
Heat Index 71 °F
Dew Point 64 °F
Humidity 81%
Rainfall 0.00 in
Snow Depth Not available.
UV 0 out of 12
Pollen 4.50 out of 12
Air Quality Not available.
Flu Activity Not available.
METAR KCPC 300335Z AUTO 00000KT 10SM SCT100 22/19 A2997 RMK AO2 T02180190

More Conditions Fewer Conditions

10-Day Weather Forecast

Almanac

Astronomy

Jul. 29, 2014 Rise Set
Actual Time 6:23 AM EDT 8:18 PM EDT
Civil Twilight 5:55 AM EDT 8:46 PM EDT
Nautical Twilight 5:22 AM EDT 9:19 PM EDT
Astronomical Twilight 4:46 AM EDT 9:55 PM EDT
Moon 8:49 AM EDT (7/29) 9:40 PM EDT (7/29)
Length of Visible Light 14h 50m
Length of Day
13h 55m
Tomorrow will be 1m 31s shorter.
Waxing Crescent, 9% of the Moon is Illuminated
Today
Waxing Crescent
Aug 3
First Quarter
Aug 10
Full
Aug 17
Last Quarter
Aug 25
New

Today's Extremes

State Highs State Lows

Community

WunderPhotos

Upload Photos

1,738,991 photos uploaded!

WunderBlogs® & News

Nearby

Snow Depth

Station Depth Elevation
No new snow has been reported.

Earthquake Activity

City Distance Mag. Time & Date
No recent earthquake activity has been reported nearby.
Minimum magnitude displayed is 2.5.

Coastal Water Temperatures

Place Temperature
No Stations Reporting

Nearby Weather Stations

Station Location Temp. Heat Index Dew Point Humidity Wind Precip. Elev Updated Type
CCSkywatch, Whiteville, NC 70.3 °F 71 °F 64 °F 81% North  at  0.0 mph 0.00 in / hr 91 ft 11:42 PM EDT Rapid Fire
Henry Cannon Smith Farm, Nakina, NC 72.0 °F - 68 °F 88% ENE  at  0.0 mph 0.00 in / hr 0 ft 11:34 PM EDT Normal
The Farm at Fox Bay, Loris, SC 71.0 °F - 68 °F 89% North  at  0.0 mph 0.00 in / hr 108 ft 11:42 PM EDT Rapid Fire
RL Fogle, Nichols, SC 70.8 °F - 67 °F 87% NNE  at  0.0 mph 0.00 in / hr 75 ft 11:42 PM EDT Rapid Fire
HWY 9 BUS. WEST., Loris, SC 71.6 °F 71 °F 66 °F 83% NNE  at  0.0 mph 0.00 in / hr 99 ft 11:42 PM EDT Rapid Fire
Sweet Home, Loris, SC 69.7 °F - 68 °F 94% NNW  at  0.0 mph 0.00 in / hr 35 ft 11:38 PM EDT Normal

Show More Stations Show Fewer Stations